sensor_id;sensor_type;location;lat;lon;timestamp;temperature;humidity
2030;DHT22;1020;48.854;8.830;2023-03-01T00:02:19;-1.40;1.00
2030;DHT22;1020;48.854;8.830;2023-03-01T00:04:46;-1.40;1.00
2030;DHT22;1020;48.854;8.830;2023-03-01T00:07:13;-1.40;1.00
2030;DHT22;1020;48.854;8.830;2023-03-01T00:09:40;-1.40;1.00
2030;DHT22;1020;48.854;8.830;2023-03-01T00:12:08;-1.40;1.00
2030;DHT22;1020;48.854;8.830;2023-03-01T00:14:35;-1.40;1.00
2030;DHT22;1020;48.854;8.830;2023-03-01T00:17:02;-1.50;1.00
2030;DHT22;1020;48.854;8.830;2023-03-01T00:19:29;-1.50;1.00
2030;DHT22;1020;48.854;8.830;2023-03-01T00:21:55;-1.50;1.00
2030;DHT22;1020;48.854;8.830;2023-03-01T00:24:22;-1.50;1.00
2030;DHT22;1020;48.854;8.830;2023-03-01T00:26:52;-1.50;1.00
2030;DHT22;1020;48.854;8.830;2023-03-01T00:29:22;-1.50;1.00
2030;DHT22;1020;48.854;8.830;2023-03-01T00:31:48;-3.00;1.00
2030;DHT22;1020;48.854;8.830;2023-03-01T00:34:15;-1.50;1.00
2030;DHT22;1020;48.854;8.830;2023-03-01T00:36:42;-1.60;1.00
2030;DHT22;1020;48.854;8.830;2023-03-01T00:39:11;-1.60;1.00
2030;DHT22;1020;48.854;8.830;2023-03-01T00:41:39;-1.60;1.00
2030;DHT22;1020;48.854;8.830;2023-03-01T00:44:06;-1.60;1.00
2030;DHT22;1020;48.854;8.830;2023-03-01T00:46:34;-1.70;1.00
2030;DHT22;1020;48.854;8.830;2023-03-01T00:49:01;-1.80;1.00
2030;DHT22;1020;48.854;8.830;2023-03-01T00:51:30;-1.90;57.70
2030;DHT22;1020;48.854;8.830;2023-03-01T00:53:58;-1.90;99.90
2030;DHT22;1020;48.854;8.830;2023-03-01T00:56:25;-1.90;99.90
2030;DHT22;1020;48.854;8.830;2023-03-01T00:58:52;-1.90;99.90
2030;DHT22;1020;48.854;8.830;2023-03-01T01:01:20;-1.90;99.90
2030;DHT22;1020;48.854;8.830;2023-03-01T01:03:49;-1.90;99.90
2030;DHT22;1020;48.854;8.830;2023-03-01T01:06:18;-2.00;99.90
2030;DHT22;1020;48.854;8.830;2023-03-01T01:08:46;-2.00;99.90
2030;DHT22;1020;48.854;8.830;2023-03-01T01:11:13;-2.00;99.90
2030;DHT22;1020;48.854;8.830;2023-03-01T01:13:41;-2.00;99.90
2030;DHT22;1020;48.854;8.830;2023-03-01T01:16:08;-2.00;99.90
2030;DHT22;1020;48.854;8.830;2023-03-01T01:18:35;-1.90;99.90
2030;DHT22;1020;48.854;8.830;2023-03-01T01:21:08;-2.00;99.90
2030;DHT22;1020;48.854;8.830;2023-03-01T01:23:36;-2.10;99.90
2030;DHT22;1020;48.854;8.830;2023-03-01T01:26:04;-2.10;99.90
2030;DHT22;1020;48.854;8.830;2023-03-01T01:28:31;-2.10;99.90
2030;DHT22;1020;48.854;8.830;2023-03-01T01:30:58;-2.10;99.90
2030;DHT22;1020;48.854;8.830;2023-03-01T01:33:25;-2.10;99.90
2030;DHT22;1020;48.854;8.830;2023-03-01T01:35:52;-2.10;99.90
2030;DHT22;1020;48.854;8.830;2023-03-01T01:38:20;-2.10;1.00
2030;DHT22;1020;48.854;8.830;2023-03-01T01:40:48;-2.20;1.00
2030;DHT22;1020;48.854;8.830;2023-03-01T01:43:19;-2.10;1.00
2030;DHT22;1020;48.854;8.830;2023-03-01T01:45:47;-2.10;1.00
2030;DHT22;1020;48.854;8.830;2023-03-01T01:48:18;-2.10;1.00
2030;DHT22;1020;48.854;8.830;2023-03-01T01:50:45;-2.20;1.00
2030;DHT22;1020;48.854;8.830;2023-03-01T01:53:15;-2.20;1.00
2030;DHT22;1020;48.854;8.830;2023-03-01T01:55:48;-2.20;1.00
2030;DHT22;1020;48.854;8.830;2023-03-01T01:58:19;-2.20;1.00
2030;DHT22;1020;48.854;8.830;2023-03-01T02:00:48;-2.20;1.00
2030;DHT22;1020;48.854;8.830;2023-03-01T02:03:17;-2.20;22.50
2030;DHT22;1020;48.854;8.830;2023-03-01T02:05:49;-2.20;1.00
2030;DHT22;1020;48.854;8.830;2023-03-01T02:08:19;-2.80;15.00
2030;DHT22;1020;48.854;8.830;2023-03-01T02:10:50;-2.20;18.20
2030;DHT22;1020;48.854;8.830;2023-03-01T02:13:18;-2.20;10.60
2030;DHT22;1020;48.854;8.830;2023-03-01T02:15:44;-2.20;1.00
2030;DHT22;1020;48.854;8.830;2023-03-01T02:18:14;-2.10;1.00
2030;DHT22;1020;48.854;8.830;2023-03-01T02:20:48;-2.20;1.00
2030;DHT22;1020;48.854;8.830;2023-03-01T02:23:19;-2.10;1.00
2030;DHT22;1020;48.854;8.830;2023-03-01T02:25:53;-2.10;1.00
2030;DHT22;1020;48.854;8.830;2023-03-01T02:28:26;-2.10;1.00
2030;DHT22;1020;48.854;8.830;2023-03-01T02:30:53;-2.00;1.00
2030;DHT22;1020;48.854;8.830;2023-03-01T02:33:49;-2.00;1.00
2030;DHT22;1020;48.854;8.830;2023-03-01T02:36:19;-2.00;1.00
2030;DHT22;1020;48.854;8.830;2023-03-01T02:38:47;-2.10;1.00
2030;DHT22;1020;48.854;8.830;2023-03-01T02:41:16;-2.10;1.00
2030;DHT22;1020;48.854;8.830;2023-03-01T02:43:45;-2.10;1.00
2030;DHT22;1020;48.854;8.830;2023-03-01T02:46:15;-2.00;1.00
2030;DHT22;1020;48.854;8.830;2023-03-01T02:48:45;-2.10;99.90
2030;DHT22;1020;48.854;8.830;2023-03-01T02:51:22;-2.10;99.90
2030;DHT22;1020;48.854;8.830;2023-03-01T02:53:59;-2.20;99.90
2030;DHT22;1020;48.854;8.830;2023-03-01T02:56:31;-2.20;99.90
2030;DHT22;1020;48.854;8.830;2023-03-01T02:58:59;-2.10;99.90
2030;DHT22;1020;48.854;8.830;2023-03-01T03:01:29;-2.10;99.90
2030;DHT22;1020;48.854;8.830;2023-03-01T03:04:02;-2.00;99.90
2030;DHT22;1020;48.854;8.830;2023-03-01T03:06:29;-2.00;99.90
2030;DHT22;1020;48.854;8.830;2023-03-01T03:08:56;-2.00;99.90
2030;DHT22;1020;48.854;8.830;2023-03-01T03:11:23;-2.00;99.90
2030;DHT22;1020;48.854;8.830;2023-03-01T03:13:50;-2.00;1.00
2030;DHT22;1020;48.854;8.830;2023-03-01T03:16:19;-1.90;1.00
2030;DHT22;1020;48.854;8.830;2023-03-01T03:18:46;-1.90;1.00
2030;DHT22;1020;48.854;8.830;2023-03-01T03:21:13;-1.80;1.00
2030;DHT22;1020;48.854;8.830;2023-03-01T03:23:40;-1.80;1.00
2030;DHT22;1020;48.854;8.830;2023-03-01T03:26:06;-1.70;1.00
2030;DHT22;1020;48.854;8.830;2023-03-01T03:28:34;-1.60;1.00
2030;DHT22;1020;48.854;8.830;2023-03-01T03:31:06;-1.60;1.00
2030;DHT22;1020;48.854;8.830;2023-03-01T03:33:34;-1.60;99.90
2030;DHT22;1020;48.854;8.830;2023-03-01T03:36:01;-1.50;1.00
2030;DHT22;1020;48.854;8.830;2023-03-01T03:38:28;-1.40;99.90
2030;DHT22;1020;48.854;8.830;2023-03-01T03:41:00;-1.40;99.90
2030;DHT22;1020;48.854;8.830;2023-03-01T03:43:30;-1.30;99.90
2030;DHT22;1020;48.854;8.830;2023-03-01T03:45:57;-1.40;99.90
2030;DHT22;1020;48.854;8.830;2023-03-01T03:48:24;-1.30;99.90
2030;DHT22;1020;48.854;8.830;2023-03-01T03:50:54;-1.40;99.90
2030;DHT22;1020;48.854;8.830;2023-03-01T03:53:22;-1.40;99.90
2030;DHT22;1020;48.854;8.830;2023-03-01T03:55:49;-1.30;99.90
2030;DHT22;1020;48.854;8.830;2023-03-01T03:58:18;-1.20;99.90
2030;DHT22;1020;48.854;8.830;2023-03-01T04:00:47;-1.20;99.90
2030;DHT22;1020;48.854;8.830;2023-03-01T04:03:15;-1.10;99.90
2030;DHT22;1020;48.854;8.830;2023-03-01T04:05:44;-1.10;99.90
2030;DHT22;1020;48.854;8.830;2023-03-01T04:08:12;-1.10;99.90
2030;DHT22;1020;48.854;8.830;2023-03-01T04:10:40;-1.10;99.90
2030;DHT22;1020;48.854;8.830;2023-03-01T04:13:10;-1.00;99.90
2030;DHT22;1020;48.854;8.830;2023-03-01T04:15:37;-0.90;99.90
2030;DHT22;1020;48.854;8.830;2023-03-01T04:18:05;-0.90;99.90
2030;DHT22;1020;48.854;8.830;2023-03-01T04:20:34;-0.90;99.90
2030;DHT22;1020;48.854;8.830;2023-03-01T04:23:03;-1.00;99.90
2030;DHT22;1020;48.854;8.830;2023-03-01T04:25:38;-0.90;99.90
2030;DHT22;1020;48.854;8.830;2023-03-01T04:28:05;-0.80;99.90
2030;DHT22;1020;48.854;8.830;2023-03-01T04:30:32;-0.90;99.90
2030;DHT22;1020;48.854;8.830;2023-03-01T04:33:02;-0.90;99.90
2030;DHT22;1020;48.854;8.830;2023-03-01T04:35:29;-2.20;99.90
2030;DHT22;1020;48.854;8.830;2023-03-01T04:37:56;-1.00;99.90
2030;DHT22;1020;48.854;8.830;2023-03-01T04:40:23;-1.00;99.90
2030;DHT22;1020;48.854;8.830;2023-03-01T04:42:51;-1.00;99.90
2030;DHT22;1020;48.854;8.830;2023-03-01T04:45:18;-1.00;99.90
2030;DHT22;1020;48.854;8.830;2023-03-01T04:47:46;-0.90;99.90
2030;DHT22;1020;48.854;8.830;2023-03-01T04:50:15;-0.90;99.90
2030;DHT22;1020;48.854;8.830;2023-03-01T04:52:43;-0.90;99.90
2030;DHT22;1020;48.854;8.830;2023-03-01T04:55:10;-0.90;99.90
2030;DHT22;1020;48.854;8.830;2023-03-01T04:57:36;-0.90;99.90
2030;DHT22;1020;48.854;8.830;2023-03-01T05:00:08;-0.90;99.90
2030;DHT22;1020;48.854;8.830;2023-03-01T05:02:46;-0.90;99.90
2030;DHT22;1020;48.854;8.830;2023-03-01T05:05:14;-0.90;99.90
2030;DHT22;1020;48.854;8.830;2023-03-01T05:07:41;-0.90;99.90
2030;DHT22;1020;48.854;8.830;2023-03-01T05:10:08;-0.80;99.90
2030;DHT22;1020;48.854;8.830;2023-03-01T05:12:35;-0.70;99.90
2030;DHT22;1020;48.854;8.830;2023-03-01T05:15:03;-0.80;99.90
2030;DHT22;1020;48.854;8.830;2023-03-01T05:17:34;-0.70;99.90
2030;DHT22;1020;48.854;8.830;2023-03-01T05:20:00;-0.60;99.90
2030;DHT22;1020;48.854;8.830;2023-03-01T05:22:31;-0.60;99.90
2030;DHT22;1020;48.854;8.830;2023-03-01T05:24:57;-2.10;99.90
2030;DHT22;1020;48.854;8.830;2023-03-01T05:27:24;-0.70;99.90
2030;DHT22;1020;48.854;8.830;2023-03-01T05:29:51;-0.60;97.80
2030;DHT22;1020;48.854;8.830;2023-03-01T05:32:18;-1.70;97.00
2030;DHT22;1020;48.854;8.830;2023-03-01T05:34:46;-0.70;94.40
2030;DHT22;1020;48.854;8.830;2023-03-01T05:37:13;-0.70;95.00
2030;DHT22;1020;48.854;8.830;2023-03-01T05:39:39;-0.80;95.20
2030;DHT22;1020;48.854;8.830;2023-03-01T05:42:10;-0.70;99.90
2030;DHT22;1020;48.854;8.830;2023-03-01T05:44:37;-0.70;99.90
2030;DHT22;1020;48.854;8.830;2023-03-01T05:47:04;-0.80;97.50
2030;DHT22;1020;48.854;8.830;2023-03-01T05:49:31;-0.90;92.30
2030;DHT22;1020;48.854;8.830;2023-03-01T05:51:59;-0.90;98.80
2030;DHT22;1020;48.854;8.830;2023-03-01T05:54:26;-1.00;99.90
2030;DHT22;1020;48.854;8.830;2023-03-01T05:56:53;-1.00;99.90
2030;DHT22;1020;48.854;8.830;2023-03-01T05:59:20;-1.10;99.90
2030;DHT22;1020;48.854;8.830;2023-03-01T06:01:47;-1.10;99.90
2030;DHT22;1020;48.854;8.830;2023-03-01T06:04:13;-1.10;99.90
2030;DHT22;1020;48.854;8.830;2023-03-01T06:06:40;-1.20;99.90
2030;DHT22;1020;48.854;8.830;2023-03-01T06:09:08;-1.20;99.90
2030;DHT22;1020;48.854;8.830;2023-03-01T06:11:36;-1.30;99.90
2030;DHT22;1020;48.854;8.830;2023-03-01T06:14:03;-1.40;99.90
2030;DHT22;1020;48.854;8.830;2023-03-01T06:16:31;-1.40;99.90
2030;DHT22;1020;48.854;8.830;2023-03-01T06:18:58;-1.40;99.90
2030;DHT22;1020;48.854;8.830;2023-03-01T06:21:25;-1.40;99.90
2030;DHT22;1020;48.854;8.830;2023-03-01T06:23:52;-1.40;99.90
2030;DHT22;1020;48.854;8.830;2023-03-01T06:26:20;-1.40;99.90
2030;DHT22;1020;48.854;8.830;2023-03-01T06:28:46;-1.50;99.90
2030;DHT22;1020;48.854;8.830;2023-03-01T06:31:13;-1.50;99.90
2030;DHT22;1020;48.854;8.830;2023-03-01T06:33:40;-1.50;99.90
2030;DHT22;1020;48.854;8.830;2023-03-01T06:36:08;-1.50;99.90
2030;DHT22;1020;48.854;8.830;2023-03-01T06:38:35;-1.40;99.90
2030;DHT22;1020;48.854;8.830;2023-03-01T06:41:02;-1.30;99.90
2030;DHT22;1020;48.854;8.830;2023-03-01T06:43:30;-1.30;99.90
2030;DHT22;1020;48.854;8.830;2023-03-01T06:45:57;-1.30;99.90
2030;DHT22;1020;48.854;8.830;2023-03-01T06:48:23;-1.30;99.90
2030;DHT22;1020;48.854;8.830;2023-03-01T06:50:50;-1.30;99.90
2030;DHT22;1020;48.854;8.830;2023-03-01T06:53:17;-1.20;99.90
2030;DHT22;1020;48.854;8.830;2023-03-01T06:55:43;-1.20;99.90
2030;DHT22;1020;48.854;8.830;2023-03-01T06:58:10;-1.20;99.90
2030;DHT22;1020;48.854;8.830;2023-03-01T07:00:38;-1.10;99.90
2030;DHT22;1020;48.854;8.830;2023-03-01T07:03:06;-1.00;99.90
2030;DHT22;1020;48.854;8.830;2023-03-01T07:05:33;-0.90;99.90
2030;DHT22;1020;48.854;8.830;2023-03-01T07:08:00;-0.70;99.90
2030;DHT22;1020;48.854;8.830;2023-03-01T07:10:27;-0.50;99.90
2030;DHT22;1020;48.854;8.830;2023-03-01T07:12:55;-0.40;99.90
2030;DHT22;1020;48.854;8.830;2023-03-01T07:15:22;-0.30;99.90
2030;DHT22;1020;48.854;8.830;2023-03-01T07:17:50;-0.10;99.90
2030;DHT22;1020;48.854;8.830;2023-03-01T07:20:18;0.10;94.80
2030;DHT22;1020;48.854;8.830;2023-03-01T07:22:46;0.20;13.40
2030;DHT22;1020;48.854;8.830;2023-03-01T07:25:13;0.20;1.00
2030;DHT22;1020;48.854;8.830;2023-03-01T07:27:40;0.20;1.00
2030;DHT22;1020;48.854;8.830;2023-03-01T07:30:08;0.20;1.00
2030;DHT22;1020;48.854;8.830;2023-03-01T07:32:35;0.30;1.00
2030;DHT22;1020;48.854;8.830;2023-03-01T07:35:04;0.40;1.00
2030;DHT22;1020;48.854;8.830;2023-03-01T07:37:31;0.50;1.00
2030;DHT22;1020;48.854;8.830;2023-03-01T07:39:57;0.70;1.00
2030;DHT22;1020;48.854;8.830;2023-03-01T07:42:24;0.90;1.00
2030;DHT22;1020;48.854;8.830;2023-03-01T07:44:51;1.10;1.00
2030;DHT22;1020;48.854;8.830;2023-03-01T07:47:18;1.00;1.00
2030;DHT22;1020;48.854;8.830;2023-03-01T07:49:44;1.30;1.00
2030;DHT22;1020;48.854;8.830;2023-03-01T07:52:12;1.70;1.00
2030;DHT22;1020;48.854;8.830;2023-03-01T07:54:42;2.00;1.00
2030;DHT22;1020;48.854;8.830;2023-03-01T07:57:09;2.50;1.00
2030;DHT22;1020;48.854;8.830;2023-03-01T07:59:36;2.90;1.00
2030;DHT22;1020;48.854;8.830;2023-03-01T08:02:02;3.60;1.00
2030;DHT22;1020;48.854;8.830;2023-03-01T08:04:29;4.30;99.90
2030;DHT22;1020;48.854;8.830;2023-03-01T08:06:56;3.30;99.90
2030;DHT22;1020;48.854;8.830;2023-03-01T08:09:24;5.30;99.90
2030;DHT22;1020;48.854;8.830;2023-03-01T08:11:51;5.40;99.90
2030;DHT22;1020;48.854;8.830;2023-03-01T08:14:19;5.40;99.90
2030;DHT22;1020;48.854;8.830;2023-03-01T08:16:49;6.20;99.90
2030;DHT22;1020;48.854;8.830;2023-03-01T08:19:16;6.60;99.90
2030;DHT22;1020;48.854;8.830;2023-03-01T08:21:43;6.90;99.90
2030;DHT22;1020;48.854;8.830;2023-03-01T08:24:09;7.70;99.90
2030;DHT22;1020;48.854;8.830;2023-03-01T08:26:38;8.20;99.90
2030;DHT22;1020;48.854;8.830;2023-03-01T08:29:04;8.70;99.90
2030;DHT22;1020;48.854;8.830;2023-03-01T08:31:33;8.60;99.90
2030;DHT22;1020;48.854;8.830;2023-03-01T08:34:04;8.70;99.90
2030;DHT22;1020;48.854;8.830;2023-03-01T08:36:32;8.00;99.90
2030;DHT22;1020;48.854;8.830;2023-03-01T08:38:59;8.20;99.90
2030;DHT22;1020;48.854;8.830;2023-03-01T08:41:27;8.40;99.90
2030;DHT22;1020;48.854;8.830;2023-03-01T08:43:55;8.50;99.90
2030;DHT22;1020;48.854;8.830;2023-03-01T08:46:24;9.30;99.90
2030;DHT22;1020;48.854;8.830;2023-03-01T08:48:52;9.40;99.90
2030;DHT22;1020;48.854;8.830;2023-03-01T08:51:19;9.80;99.90
2030;DHT22;1020;48.854;8.830;2023-03-01T08:53:47;10.20;99.90
2030;DHT22;1020;48.854;8.830;2023-03-01T08:56:15;10.50;99.90
2030;DHT22;1020;48.854;8.830;2023-03-01T08:58:44;10.20;99.90
2030;DHT22;1020;48.854;8.830;2023-03-01T09:01:15;9.90;99.90
2030;DHT22;1020;48.854;8.830;2023-03-01T09:03:43;9.70;99.90
2030;DHT22;1020;48.854;8.830;2023-03-01T09:06:10;9.30;99.90
2030;DHT22;1020;48.854;8.830;2023-03-01T09:08:37;9.60;99.90
2030;DHT22;1020;48.854;8.830;2023-03-01T09:11:06;9.00;99.90
2030;DHT22;1020;48.854;8.830;2023-03-01T09:13:33;9.90;99.90
2030;DHT22;1020;48.854;8.830;2023-03-01T09:16:02;10.20;99.90
2030;DHT22;1020;48.854;8.830;2023-03-01T09:18:31;10.10;99.90
2030;DHT22;1020;48.854;8.830;2023-03-01T09:21:01;10.90;99.90
2030;DHT22;1020;48.854;8.830;2023-03-01T09:23:28;11.20;99.90
2030;DHT22;1020;48.854;8.830;2023-03-01T09:25:54;11.30;99.90
2030;DHT22;1020;48.854;8.830;2023-03-01T09:28:21;9.00;99.90
2030;DHT22;1020;48.854;8.830;2023-03-01T09:30:48;9.00;99.90
2030;DHT22;1020;48.854;8.830;2023-03-01T09:33:15;10.00;99.90
2030;DHT22;1020;48.854;8.830;2023-03-01T09:35:43;9.30;99.90
2030;DHT22;1020;48.854;8.830;2023-03-01T09:38:12;9.70;99.90
2030;DHT22;1020;48.854;8.830;2023-03-01T09:40:42;10.20;99.90
2030;DHT22;1020;48.854;8.830;2023-03-01T09:43:18;9.90;99.90
2030;DHT22;1020;48.854;8.830;2023-03-01T09:45:45;10.10;99.90
2030;DHT22;1020;48.854;8.830;2023-03-01T09:48:16;10.50;99.90
2030;DHT22;1020;48.854;8.830;2023-03-01T09:50:45;9.90;99.90
2030;DHT22;1020;48.854;8.830;2023-03-01T09:53:15;10.50;99.90
2030;DHT22;1020;48.854;8.830;2023-03-01T09:55:44;10.60;99.90
2030;DHT22;1020;48.854;8.830;2023-03-01T09:58:30;10.90;99.90
2030;DHT22;1020;48.854;8.830;2023-03-01T10:01:00;11.00;99.90
2030;DHT22;1020;48.854;8.830;2023-03-01T10:03:34;11.50;99.90
2030;DHT22;1020;48.854;8.830;2023-03-01T10:06:08;11.90;99.90
2030;DHT22;1020;48.854;8.830;2023-03-01T10:08:40;11.50;99.90
2030;DHT22;1020;48.854;8.830;2023-03-01T10:11:19;12.30;99.90
2030;DHT22;1020;48.854;8.830;2023-03-01T10:13:52;13.00;99.90
2030;DHT22;1020;48.854;8.830;2023-03-01T10:16:25;13.20;99.90
2030;DHT22;1020;48.854;8.830;2023-03-01T10:18:57;12.00;99.90
2030;DHT22;1020;48.854;8.830;2023-03-01T10:21:28;11.70;99.90
2030;DHT22;1020;48.854;8.830;2023-03-01T10:24:07;11.60;99.90
2030;DHT22;1020;48.854;8.830;2023-03-01T10:26:46;11.70;99.90
2030;DHT22;1020;48.854;8.830;2023-03-01T10:29:14;11.60;99.90
2030;DHT22;1020;48.854;8.830;2023-03-01T10:31:43;11.10;99.90
2030;DHT22;1020;48.854;8.830;2023-03-01T10:34:13;11.00;99.90
2030;DHT22;1020;48.854;8.830;2023-03-01T10:36:43;11.50;99.90
2030;DHT22;1020;48.854;8.830;2023-03-01T10:39:14;11.70;99.90
2030;DHT22;1020;48.854;8.830;2023-03-01T10:41:58;11.90;99.90
2030;DHT22;1020;48.854;8.830;2023-03-01T10:44:38;12.30;99.90
2030;DHT22;1020;48.854;8.830;2023-03-01T10:47:16;12.30;99.90
2030;DHT22;1020;48.854;8.830;2023-03-01T10:49:55;12.40;99.90
2030;DHT22;1020;48.854;8.830;2023-03-01T10:52:26;12.70;99.90
2030;DHT22;1020;48.854;8.830;2023-03-01T10:54:56;11.70;99.90
2030;DHT22;1020;48.854;8.830;2023-03-01T10:57:35;12.00;99.90
2030;DHT22;1020;48.854;8.830;2023-03-01T11:00:21;12.30;99.90
2030;DHT22;1020;48.854;8.830;2023-03-01T11:02:50;12.70;99.90
2030;DHT22;1020;48.854;8.830;2023-03-01T11:05:21;12.80;99.90
2030;DHT22;1020;48.854;8.830;2023-03-01T11:07:51;13.00;99.90
2030;DHT22;1020;48.854;8.830;2023-03-01T11:10:21;13.50;99.90
2030;DHT22;1020;48.854;8.830;2023-03-01T11:12:50;13.90;99.90
2030;DHT22;1020;48.854;8.830;2023-03-01T11:15:22;14.00;99.90
2030;DHT22;1020;48.854;8.830;2023-03-01T11:17:50;14.00;99.90
2030;DHT22;1020;48.854;8.830;2023-03-01T11:20:23;13.90;99.90
2030;DHT22;1020;48.854;8.830;2023-03-01T11:22:54;13.50;99.90
2030;DHT22;1020;48.854;8.830;2023-03-01T11:25:25;12.60;99.90
2030;DHT22;1020;48.854;8.830;2023-03-01T11:27:53;13.00;99.90
2030;DHT22;1020;48.854;8.830;2023-03-01T11:30:23;13.30;99.90
2030;DHT22;1020;48.854;8.830;2023-03-01T11:32:59;13.20;99.90
2030;DHT22;1020;48.854;8.830;2023-03-01T11:35:28;13.40;99.90
2030;DHT22;1020;48.854;8.830;2023-03-01T11:38:09;12.70;99.90
2030;DHT22;1020;48.854;8.830;2023-03-01T11:40:44;13.00;99.90
2030;DHT22;1020;48.854;8.830;2023-03-01T11:43:19;13.20;99.90
2030;DHT22;1020;48.854;8.830;2023-03-01T11:46:00;12.80;99.90
2030;DHT22;1020;48.854;8.830;2023-03-01T11:48:48;12.90;99.90
2030;DHT22;1020;48.854;8.830;2023-03-01T11:51:23;13.00;99.90
2030;DHT22;1020;48.854;8.830;2023-03-01T11:56:46;13.10;99.90
2030;DHT22;1020;48.854;8.830;2023-03-01T11:59:33;12.30;99.90
2030;DHT22;1020;48.854;8.830;2023-03-01T12:05:11;12.10;99.90
2030;DHT22;1020;48.854;8.830;2023-03-01T12:07:48;12.00;99.90
2030;DHT22;1020;48.854;8.830;2023-03-01T12:10:26;11.60;99.90
2030;DHT22;1020;48.854;8.830;2023-03-01T12:13:03;11.90;99.90
2030;DHT22;1020;48.854;8.830;2023-03-01T12:15:59;11.90;99.90
2030;DHT22;1020;48.854;8.830;2023-03-01T12:21:54;12.90;99.90
2030;DHT22;1020;48.854;8.830;2023-03-01T12:24:44;13.40;99.90
2030;DHT22;1020;48.854;8.830;2023-03-01T12:27:30;14.20;99.90
2030;DHT22;1020;48.854;8.830;2023-03-01T12:30:06;14.10;99.90
2030;DHT22;1020;48.854;8.830;2023-03-01T12:32:47;14.60;99.90
2030;DHT22;1020;48.854;8.830;2023-03-01T12:35:36;14.90;99.90
2030;DHT22;1020;48.854;8.830;2023-03-01T12:38:23;14.70;99.90
2030;DHT22;1020;48.854;8.830;2023-03-01T12:44:08;15.40;99.90
2030;DHT22;1020;48.854;8.830;2023-03-01T12:46:46;15.20;99.90
2030;DHT22;1020;48.854;8.830;2023-03-01T12:49:21;15.20;99.90
2030;DHT22;1020;48.854;8.830;2023-03-01T12:51:53;15.20;99.90
2030;DHT22;1020;48.854;8.830;2023-03-01T12:54:26;15.10;99.90
2030;DHT22;1020;48.854;8.830;2023-03-01T12:56:54;14.60;99.90
2030;DHT22;1020;48.854;8.830;2023-03-01T12:59:27;15.00;99.90
2030;DHT22;1020;48.854;8.830;2023-03-01T13:02:03;15.40;99.90
2030;DHT22;1020;48.854;8.830;2023-03-01T13:05:01;15.00;99.90
2030;DHT22;1020;48.854;8.830;2023-03-01T13:07:36;15.30;99.90
2030;DHT22;1020;48.854;8.830;2023-03-01T13:10:21;15.30;99.90
2030;DHT22;1020;48.854;8.830;2023-03-01T13:13:00;15.70;99.90
2030;DHT22;1020;48.854;8.830;2023-03-01T13:15:32;15.50;99.90
2030;DHT22;1020;48.854;8.830;2023-03-01T13:18:00;15.20;99.90
2030;DHT22;1020;48.854;8.830;2023-03-01T13:20:32;15.50;99.90
2030;DHT22;1020;48.854;8.830;2023-03-01T13:23:12;15.60;99.90
2030;DHT22;1020;48.854;8.830;2023-03-01T13:26:08;15.40;99.90
2030;DHT22;1020;48.854;8.830;2023-03-01T13:28:41;14.90;99.90
2030;DHT22;1020;48.854;8.830;2023-03-01T13:31:11;15.60;99.90
2030;DHT22;1020;48.854;8.830;2023-03-01T13:33:57;15.40;99.90
2030;DHT22;1020;48.854;8.830;2023-03-01T13:36:46;15.40;99.90
2030;DHT22;1020;48.854;8.830;2023-03-01T13:39:31;15.00;99.90
2030;DHT22;1020;48.854;8.830;2023-03-01T13:41:59;14.20;99.90
2030;DHT22;1020;48.854;8.830;2023-03-01T13:44:30;14.40;99.90
2030;DHT22;1020;48.854;8.830;2023-03-01T13:47:05;14.60;99.90
2030;DHT22;1020;48.854;8.830;2023-03-01T13:49:41;14.60;99.90
2030;DHT22;1020;48.854;8.830;2023-03-01T13:52:30;14.70;99.90
2030;DHT22;1020;48.854;8.830;2023-03-01T13:54:59;14.50;99.90
2030;DHT22;1020;48.854;8.830;2023-03-01T13:57:32;14.20;99.90
2030;DHT22;1020;48.854;8.830;2023-03-01T13:59:59;14.00;99.90
2030;DHT22;1020;48.854;8.830;2023-03-01T14:02:27;13.70;99.90
2030;DHT22;1020;48.854;8.830;2023-03-01T14:04:58;13.70;99.90
2030;DHT22;1020;48.854;8.830;2023-03-01T14:07:26;13.60;99.90
2030;DHT22;1020;48.854;8.830;2023-03-01T14:09:56;13.60;99.90
2030;DHT22;1020;48.854;8.830;2023-03-01T14:12:40;13.60;99.90
2030;DHT22;1020;48.854;8.830;2023-03-01T14:15:15;14.00;99.90
2030;DHT22;1020;48.854;8.830;2023-03-01T14:17:51;13.90;99.90
2030;DHT22;1020;48.854;8.830;2023-03-01T14:20:21;14.00;99.90
2030;DHT22;1020;48.854;8.830;2023-03-01T14:22:50;13.80;99.90
2030;DHT22;1020;48.854;8.830;2023-03-01T14:25:28;13.80;99.90
2030;DHT22;1020;48.854;8.830;2023-03-01T14:27:59;13.90;99.90
2030;DHT22;1020;48.854;8.830;2023-03-01T14:30:30;13.60;99.90
2030;DHT22;1020;48.854;8.830;2023-03-01T14:33:01;13.80;99.90
2030;DHT22;1020;48.854;8.830;2023-03-01T14:35:30;13.80;99.90
2030;DHT22;1020;48.854;8.830;2023-03-01T14:37:57;13.90;99.90
2030;DHT22;1020;48.854;8.830;2023-03-01T14:40:27;13.60;99.90
2030;DHT22;1020;48.854;8.830;2023-03-01T14:42:56;12.80;99.90
2030;DHT22;1020;48.854;8.830;2023-03-01T14:45:25;12.10;99.90
2030;DHT22;1020;48.854;8.830;2023-03-01T14:47:53;11.90;99.90
2030;DHT22;1020;48.854;8.830;2023-03-01T14:50:25;12.00;99.90
2030;DHT22;1020;48.854;8.830;2023-03-01T14:52:54;12.10;99.90
2030;DHT22;1020;48.854;8.830;2023-03-01T14:55:26;12.20;99.90
2030;DHT22;1020;48.854;8.830;2023-03-01T14:57:53;12.00;99.90
2030;DHT22;1020;48.854;8.830;2023-03-01T15:00:22;11.80;99.90
2030;DHT22;1020;48.854;8.830;2023-03-01T15:02:51;11.70;99.90
2030;DHT22;1020;48.854;8.830;2023-03-01T15:05:24;11.40;99.90
2030;DHT22;1020;48.854;8.830;2023-03-01T15:07:52;11.50;99.90
2030;DHT22;1020;48.854;8.830;2023-03-01T15:10:28;11.30;99.90
2030;DHT22;1020;48.854;8.830;2023-03-01T15:12:55;10.90;99.90
2030;DHT22;1020;48.854;8.830;2023-03-01T15:15:34;10.60;99.90
2030;DHT22;1020;48.854;8.830;2023-03-01T15:18:04;10.70;99.90
2030;DHT22;1020;48.854;8.830;2023-03-01T15:20:33;10.30;99.90
2030;DHT22;1020;48.854;8.830;2023-03-01T15:23:02;9.80;99.90
2030;DHT22;1020;48.854;8.830;2023-03-01T15:25:31;9.60;99.90
2030;DHT22;1020;48.854;8.830;2023-03-01T15:28:00;9.70;99.90
2030;DHT22;1020;48.854;8.830;2023-03-01T15:30:30;9.90;99.90
2030;DHT22;1020;48.854;8.830;2023-03-01T15:33:27;10.00;99.90
2030;DHT22;1020;48.854;8.830;2023-03-01T15:35:56;9.60;99.90
2030;DHT22;1020;48.854;8.830;2023-03-01T15:38:30;9.50;99.90
2030;DHT22;1020;48.854;8.830;2023-03-01T15:40:59;9.50;99.90
2030;DHT22;1020;48.854;8.830;2023-03-01T15:43:41;9.20;99.90
2030;DHT22;1020;48.854;8.830;2023-03-01T15:46:20;9.30;99.90
2030;DHT22;1020;48.854;8.830;2023-03-01T15:48:51;9.20;99.90
2030;DHT22;1020;48.854;8.830;2023-03-01T15:51:22;9.10;99.90
2030;DHT22;1020;48.854;8.830;2023-03-01T15:53:51;8.70;99.90
2030;DHT22;1020;48.854;8.830;2023-03-01T15:56:18;8.70;99.90
2030;DHT22;1020;48.854;8.830;2023-03-01T15:58:45;8.60;99.90
2030;DHT22;1020;48.854;8.830;2023-03-01T16:01:13;8.50;99.90
2030;DHT22;1020;48.854;8.830;2023-03-01T16:03:41;8.40;99.90
2030;DHT22;1020;48.854;8.830;2023-03-01T16:06:09;8.30;99.90
2030;DHT22;1020;48.854;8.830;2023-03-01T16:08:38;8.20;99.90
2030;DHT22;1020;48.854;8.830;2023-03-01T16:11:11;8.20;99.90
2030;DHT22;1020;48.854;8.830;2023-03-01T16:13:39;8.10;99.90
2030;DHT22;1020;48.854;8.830;2023-03-01T16:16:08;8.10;99.90
2030;DHT22;1020;48.854;8.830;2023-03-01T16:18:37;8.20;99.90
2030;DHT22;1020;48.854;8.830;2023-03-01T16:21:04;8.20;99.90
2030;DHT22;1020;48.854;8.830;2023-03-01T16:23:31;8.00;99.90
2030;DHT22;1020;48.854;8.830;2023-03-01T16:26:00;7.80;99.90
2030;DHT22;1020;48.854;8.830;2023-03-01T16:28:27;7.70;99.90
2030;DHT22;1020;48.854;8.830;2023-03-01T16:30:53;7.60;99.90
2030;DHT22;1020;48.854;8.830;2023-03-01T16:33:20;7.30;99.90
2030;DHT22;1020;48.854;8.830;2023-03-01T16:35:47;7.20;99.90
2030;DHT22;1020;48.854;8.830;2023-03-01T16:38:14;7.00;99.90
2030;DHT22;1020;48.854;8.830;2023-03-01T16:40:47;6.90;99.90